Main page
METAR-TAF:

METAR-TAF

Airports :

Riga International Airport

Riga, Latvia

latitude: 56-55N, longitude: 023-58E, elevation: 10 m

Current weather observation

The report was made 36 minutes ago, at 15:50 UTC
Wind 7 kt from the Southeast
Temperature 21°C
Humidity 40%
Pressure 1014 hPa
Visibility 10 km or more
Few clouds at a height of 1400 ft

METAR: EVRA 151550Z 14007KT 9999 FEW014 21/07 Q1014 NOSIG

Time: 19:26 (16:26 UTC)

Forecast

The report was made 2 hours and 25 minutes ago, at 14:01 UTC
Forecast valid from 15 at 15 UTC to 16 at 15 UTC
Wind 5 kt from the South/Southeast
Visibility 10 km or more
no clouds below 1500 m and no cumulonimbus

TAF: EVRA 151401Z 1515/1615 16005KT CAVOK

Weather observations and forecasts of more than 4000 airports (METAR and TAF reports).

The available stations are represented by yellow and red dots on the map.

Hover mouse over dot to see the name of the station.

Then click to see weather observations and forecasts.

To change the map : click on the green buttons with a black cross to zoom in, on the green button with a dash to zoom out, or on the green arrows for adjacent maps.


METAR-TAF: